Cooleemee, North Carolina
Current Conditions -  °F | °C
As of 1:35 PM on Sunday 23 Nov 2014 (Local Time) from KRUQ Reporting Station
Light Rain Light Rain  
Wind Chill: 46°   Ceiling: 1100
Heat Index: 46°   Visibility: 4mi
Dew Point: 44°   Wind: 3mph
Humidity: 94%   Direction: 20°NNE
Pressure: 30.05"   Gusts: NA
Location:  35.81°N, 80.56°W
Report Text: KRUQ 231835Z AUTO 02003KT 4SM -RA OVC011 08/07 A3005 RMK AO2 P0002 T00760067
Loading
Personal Weather Stations






























Interactive Weather Map New forecast layout! Learn more

10-Day Weather Forecast

Advertisements
Track Severe Weather on mobile